sensor_id;sensor_type;location;lat;lon;timestamp;P1;durP1;ratioP1;P2;durP2;ratioP2
34695;SDS011;20918;51.138;17.370;2023-05-10T00:05:15;8.20;;;5.40;;
34695;SDS011;20918;51.138;17.370;2023-05-10T00:08:49;12.00;;;5.90;;
34695;SDS011;20918;51.138;17.370;2023-05-10T00:11:53;10.90;;;5.80;;
34695;SDS011;20918;51.138;17.370;2023-05-10T00:15:18;9.80;;;5.50;;
34695;SDS011;20918;51.138;17.370;2023-05-10T00:18:22;10.70;;;5.90;;
34695;SDS011;20918;51.138;17.370;2023-05-10T00:21:23;9.60;;;5.60;;
34695;SDS011;20918;51.138;17.370;2023-05-10T00:24:24;18.00;;;5.70;;
34695;SDS011;20918;51.138;17.370;2023-05-10T00:31:59;11.20;;;5.80;;
34695;SDS011;20918;51.138;17.370;2023-05-10T00:35:02;9.00;;;5.20;;
34695;SDS011;20918;51.138;17.370;2023-05-10T00:38:27;10.70;;;4.90;;
34695;SDS011;20918;51.138;17.370;2023-05-10T00:41:42;9.60;;;5.70;;
34695;SDS011;20918;51.138;17.370;2023-05-10T00:44:43;13.80;;;5.40;;
34695;SDS011;20918;51.138;17.370;2023-05-10T00:47:47;6.80;;;5.10;;
34695;SDS011;20918;51.138;17.370;2023-05-10T00:55:08;8.30;;;5.00;;
34695;SDS011;20918;51.138;17.370;2023-05-10T01:02:35;9.30;;;5.60;;
34695;SDS011;20918;51.138;17.370;2023-05-10T01:05:44;11.40;;;6.50;;
34695;SDS011;20918;51.138;17.370;2023-05-10T01:12:46;9.50;;;5.30;;
34695;SDS011;20918;51.138;17.370;2023-05-10T01:16:28;12.50;;;6.40;;
34695;SDS011;20918;51.138;17.370;2023-05-10T01:34:07;15.70;;;6.30;;
34695;SDS011;20918;51.138;17.370;2023-05-10T01:37:38;12.40;;;5.60;;
34695;SDS011;20918;51.138;17.370;2023-05-10T01:41:04;11.10;;;6.20;;
34695;SDS011;20918;51.138;17.370;2023-05-10T01:44:35;13.10;;;6.30;;
34695;SDS011;20918;51.138;17.370;2023-05-10T01:47:41;13.00;;;6.60;;
34695;SDS011;20918;51.138;17.370;2023-05-10T01:50:47;12.20;;;5.90;;
34695;SDS011;20918;51.138;17.370;2023-05-10T01:54:33;9.70;;;6.20;;
34695;SDS011;20918;51.138;17.370;2023-05-10T02:01:31;10.80;;;6.10;;
34695;SDS011;20918;51.138;17.370;2023-05-10T02:04:38;13.00;;;5.80;;
34695;SDS011;20918;51.138;17.370;2023-05-10T02:07:41;12.00;;;6.20;;
34695;SDS011;20918;51.138;17.370;2023-05-10T02:10:44;10.00;;;6.00;;
34695;SDS011;20918;51.138;17.370;2023-05-10T02:13:47;11.50;;;6.60;;
34695;SDS011;20918;51.138;17.370;2023-05-10T02:17:02;11.30;;;6.40;;
34695;SDS011;20918;51.138;17.370;2023-05-10T02:20:06;8.70;;;5.90;;
34695;SDS011;20918;51.138;17.370;2023-05-10T02:23:18;13.80;;;6.90;;
34695;SDS011;20918;51.138;17.370;2023-05-10T02:26:25;7.80;;;5.50;;
34695;SDS011;20918;51.138;17.370;2023-05-10T02:29:31;12.60;;;6.10;;
34695;SDS011;20918;51.138;17.370;2023-05-10T02:32:43;8.70;;;5.90;;
34695;SDS011;20918;51.138;17.370;2023-05-10T02:36:20;10.80;;;5.90;;
34695;SDS011;20918;51.138;17.370;2023-05-10T02:39:28;12.70;;;6.20;;
34695;SDS011;20918;51.138;17.370;2023-05-10T02:42:37;13.80;;;6.80;;
34695;SDS011;20918;51.138;17.370;2023-05-10T02:52:43;10.80;;;5.90;;
34695;SDS011;20918;51.138;17.370;2023-05-10T02:55:50;10.90;;;6.30;;
34695;SDS011;20918;51.138;17.370;2023-05-10T02:58:57;12.20;;;6.10;;
34695;SDS011;20918;51.138;17.370;2023-05-10T03:01:58;10.00;;;5.90;;
34695;SDS011;20918;51.138;17.370;2023-05-10T03:05:00;12.60;;;5.90;;
34695;SDS011;20918;51.138;17.370;2023-05-10T03:08:01;10.70;;;6.30;;
34695;SDS011;20918;51.138;17.370;2023-05-10T03:11:32;13.50;;;6.80;;
34695;SDS011;20918;51.138;17.370;2023-05-10T03:18:40;10.50;;;6.50;;
34695;SDS011;20918;51.138;17.370;2023-05-10T03:21:59;11.30;;;6.20;;
34695;SDS011;20918;51.138;17.370;2023-05-10T03:25:23;12.50;;;6.50;;
34695;SDS011;20918;51.138;17.370;2023-05-10T03:28:43;10.60;;;6.20;;
34695;SDS011;20918;51.138;17.370;2023-05-10T03:32:15;10.90;;;6.20;;
34695;SDS011;20918;51.138;17.370;2023-05-10T03:39:03;8.70;;;6.30;;
34695;SDS011;20918;51.138;17.370;2023-05-10T03:42:38;15.30;;;6.60;;
34695;SDS011;20918;51.138;17.370;2023-05-10T03:45:41;12.20;;;6.40;;
34695;SDS011;20918;51.138;17.370;2023-05-10T03:48:42;15.50;;;6.90;;
34695;SDS011;20918;51.138;17.370;2023-05-10T03:54:49;10.30;;;6.40;;
34695;SDS011;20918;51.138;17.370;2023-05-10T03:58:06;8.70;;;5.90;;
34695;SDS011;20918;51.138;17.370;2023-05-10T04:01:28;9.50;;;5.70;;
34695;SDS011;20918;51.138;17.370;2023-05-10T04:04:35;11.80;;;6.00;;
34695;SDS011;20918;51.138;17.370;2023-05-10T04:10:39;14.10;;;6.70;;
34695;SDS011;20918;51.138;17.370;2023-05-10T04:13:47;10.50;;;5.80;;
34695;SDS011;20918;51.138;17.370;2023-05-10T04:16:51;10.40;;;5.90;;
34695;SDS011;20918;51.138;17.370;2023-05-10T04:23:09;10.90;;;6.10;;
34695;SDS011;20918;51.138;17.370;2023-05-10T04:26:17;11.30;;;5.60;;
34695;SDS011;20918;51.138;17.370;2023-05-10T04:34:19;9.20;;;5.90;;
34695;SDS011;20918;51.138;17.370;2023-05-10T04:41:43;9.30;;;5.70;;
34695;SDS011;20918;51.138;17.370;2023-05-10T04:49:09;7.40;;;5.60;;
34695;SDS011;20918;51.138;17.370;2023-05-10T04:56:40;8.60;;;5.70;;
34695;SDS011;20918;51.138;17.370;2023-05-10T04:59:43;7.70;;;5.10;;
34695;SDS011;20918;51.138;17.370;2023-05-10T05:02:44;10.90;;;5.20;;
34695;SDS011;20918;51.138;17.370;2023-05-10T05:05:53;8.90;;;5.40;;
34695;SDS011;20918;51.138;17.370;2023-05-10T05:08:54;9.70;;;4.50;;
34695;SDS011;20918;51.138;17.370;2023-05-10T05:11:55;8.30;;;5.50;;
34695;SDS011;20918;51.138;17.370;2023-05-10T05:14:59;7.80;;;5.30;;
34695;SDS011;20918;51.138;17.370;2023-05-10T05:18:07;10.10;;;4.90;;
34695;SDS011;20918;51.138;17.370;2023-05-10T05:21:26;7.50;;;5.30;;
34695;SDS011;20918;51.138;17.370;2023-05-10T05:24:51;9.30;;;5.40;;
34695;SDS011;20918;51.138;17.370;2023-05-10T05:28:28;11.00;;;5.00;;
34695;SDS011;20918;51.138;17.370;2023-05-10T05:31:46;8.70;;;5.40;;
34695;SDS011;20918;51.138;17.370;2023-05-10T05:35:22;9.20;;;5.20;;
34695;SDS011;20918;51.138;17.370;2023-05-10T05:38:22;9.20;;;4.30;;
34695;SDS011;20918;51.138;17.370;2023-05-10T05:41:29;8.60;;;4.80;;
34695;SDS011;20918;51.138;17.370;2023-05-10T05:48:03;8.60;;;5.10;;
34695;SDS011;20918;51.138;17.370;2023-05-10T05:51:13;6.30;;;4.50;;
34695;SDS011;20918;51.138;17.370;2023-05-10T05:54:16;6.40;;;4.90;;
34695;SDS011;20918;51.138;17.370;2023-05-10T05:57:34;7.60;;;5.30;;
34695;SDS011;20918;51.138;17.370;2023-05-10T06:04:02;7.50;;;3.70;;
34695;SDS011;20918;51.138;17.370;2023-05-10T06:07:02;7.00;;;4.40;;
34695;SDS011;20918;51.138;17.370;2023-05-10T06:17:41;11.50;;;3.80;;
34695;SDS011;20918;51.138;17.370;2023-05-10T06:24:20;6.80;;;3.80;;
34695;SDS011;20918;51.138;17.370;2023-05-10T06:27:22;5.40;;;4.00;;
34695;SDS011;20918;51.138;17.370;2023-05-10T06:30:23;6.10;;;4.20;;
34695;SDS011;20918;51.138;17.370;2023-05-10T06:33:28;6.30;;;4.50;;
34695;SDS011;20918;51.138;17.370;2023-05-10T06:39:59;8.50;;;4.60;;
34695;SDS011;20918;51.138;17.370;2023-05-10T06:46:46;5.70;;;3.70;;
34695;SDS011;20918;51.138;17.370;2023-05-10T06:49:47;5.70;;;3.90;;
34695;SDS011;20918;51.138;17.370;2023-05-10T06:52:47;8.20;;;3.70;;
34695;SDS011;20918;51.138;17.370;2023-05-10T06:56:09;4.80;;;3.60;;
34695;SDS011;20918;51.138;17.370;2023-05-10T06:59:17;6.20;;;3.60;;
34695;SDS011;20918;51.138;17.370;2023-05-10T07:03:21;7.70;;;3.60;;
34695;SDS011;20918;51.138;17.370;2023-05-10T07:07:04;8.70;;;3.50;;
34695;SDS011;20918;51.138;17.370;2023-05-10T07:14:02;5.10;;;3.30;;
34695;SDS011;20918;51.138;17.370;2023-05-10T07:21:12;4.90;;;3.70;;
34695;SDS011;20918;51.138;17.370;2023-05-10T07:24:16;5.30;;;3.10;;
34695;SDS011;20918;51.138;17.370;2023-05-10T07:27:22;5.90;;;3.60;;
34695;SDS011;20918;51.138;17.370;2023-05-10T07:30:23;5.20;;;3.20;;
34695;SDS011;20918;51.138;17.370;2023-05-10T07:37:19;5.20;;;3.30;;
34695;SDS011;20918;51.138;17.370;2023-05-10T07:52:26;5.10;;;3.00;;
34695;SDS011;20918;51.138;17.370;2023-05-10T08:03:15;5.00;;;3.00;;
34695;SDS011;20918;51.138;17.370;2023-05-10T08:06:19;10.00;;;3.60;;
34695;SDS011;20918;51.138;17.370;2023-05-10T08:29:46;4.70;;;3.40;;
34695;SDS011;20918;51.138;17.370;2023-05-10T08:32:50;4.70;;;3.00;;
34695;SDS011;20918;51.138;17.370;2023-05-10T08:36:01;5.10;;;3.70;;
34695;SDS011;20918;51.138;17.370;2023-05-10T08:39:57;7.10;;;3.40;;
34695;SDS011;20918;51.138;17.370;2023-05-10T08:47:24;5.10;;;3.10;;
34695;SDS011;20918;51.138;17.370;2023-05-10T08:51:03;5.30;;;3.30;;
34695;SDS011;20918;51.138;17.370;2023-05-10T08:54:59;7.20;;;3.20;;
34695;SDS011;20918;51.138;17.370;2023-05-10T09:14:56;5.90;;;3.80;;
34695;SDS011;20918;51.138;17.370;2023-05-10T09:23:31;3.40;;;3.10;;
34695;SDS011;20918;51.138;17.370;2023-05-10T09:31:18;6.30;;;3.50;;
34695;SDS011;20918;51.138;17.370;2023-05-10T09:46:54;6.70;;;3.40;;
34695;SDS011;20918;51.138;17.370;2023-05-10T09:50:58;5.30;;;3.00;;
34695;SDS011;20918;51.138;17.370;2023-05-10T09:54:09;9.10;;;3.30;;
34695;SDS011;20918;51.138;17.370;2023-05-10T09:58:00;4.20;;;3.00;;
34695;SDS011;20918;51.138;17.370;2023-05-10T10:01:10;4.80;;;3.40;;
34695;SDS011;20918;51.138;17.370;2023-05-10T10:04:44;16.70;;;3.50;;
34695;SDS011;20918;51.138;17.370;2023-05-10T10:08:13;3.80;;;2.80;;
34695;SDS011;20918;51.138;17.370;2023-05-10T10:11:20;5.30;;;3.40;;
34695;SDS011;20918;51.138;17.370;2023-05-10T10:14:47;7.60;;;3.30;;
34695;SDS011;20918;51.138;17.370;2023-05-10T10:17:51;5.60;;;3.20;;
34695;SDS011;20918;51.138;17.370;2023-05-10T10:21:22;8.30;;;3.90;;
34695;SDS011;20918;51.138;17.370;2023-05-10T10:24:40;4.10;;;3.10;;
34695;SDS011;20918;51.138;17.370;2023-05-10T10:31:59;2.70;;;2.20;;
34695;SDS011;20918;51.138;17.370;2023-05-10T10:35:33;5.00;;;2.90;;
34695;SDS011;20918;51.138;17.370;2023-05-10T10:42:44;5.70;;;3.10;;
34695;SDS011;20918;51.138;17.370;2023-05-10T10:49:36;6.40;;;2.80;;
34695;SDS011;20918;51.138;17.370;2023-05-10T10:52:45;3.10;;;2.80;;
34695;SDS011;20918;51.138;17.370;2023-05-10T10:56:08;8.30;;;3.50;;
34695;SDS011;20918;51.138;17.370;2023-05-10T11:03:22;4.70;;;3.10;;
34695;SDS011;20918;51.138;17.370;2023-05-10T11:07:16;3.90;;;3.00;;
34695;SDS011;20918;51.138;17.370;2023-05-10T11:11:05;3.20;;;2.90;;
34695;SDS011;20918;51.138;17.370;2023-05-10T11:14:09;9.80;;;3.10;;
34695;SDS011;20918;51.138;17.370;2023-05-10T11:17:54;5.30;;;3.50;;
34695;SDS011;20918;51.138;17.370;2023-05-10T11:20:58;6.20;;;3.20;;
34695;SDS011;20918;51.138;17.370;2023-05-10T11:25:07;3.80;;;3.10;;
34695;SDS011;20918;51.138;17.370;2023-05-10T11:28:09;6.50;;;3.40;;
34695;SDS011;20918;51.138;17.370;2023-05-10T11:31:53;7.20;;;3.40;;
34695;SDS011;20918;51.138;17.370;2023-05-10T11:51:14;4.60;;;3.30;;
34695;SDS011;20918;51.138;17.370;2023-05-10T11:58:40;5.10;;;2.80;;
34695;SDS011;20918;51.138;17.370;2023-05-10T12:01:59;4.20;;;2.60;;
34695;SDS011;20918;51.138;17.370;2023-05-10T12:05:13;4.10;;;2.50;;
34695;SDS011;20918;51.138;17.370;2023-05-10T12:08:57;4.20;;;2.60;;
34695;SDS011;20918;51.138;17.370;2023-05-10T12:20:12;8.90;;;2.50;;
34695;SDS011;20918;51.138;17.370;2023-05-10T12:36:11;2.30;;;2.10;;
34695;SDS011;20918;51.138;17.370;2023-05-10T12:39:44;5.80;;;2.60;;
34695;SDS011;20918;51.138;17.370;2023-05-10T12:43:37;5.00;;;2.20;;
34695;SDS011;20918;51.138;17.370;2023-05-10T12:50:34;3.10;;;2.10;;
34695;SDS011;20918;51.138;17.370;2023-05-10T12:53:37;5.40;;;2.70;;
34695;SDS011;20918;51.138;17.370;2023-05-10T12:56:50;4.10;;;2.80;;
34695;SDS011;20918;51.138;17.370;2023-05-10T13:00:00;5.60;;;2.80;;
34695;SDS011;20918;51.138;17.370;2023-05-10T13:07:10;6.30;;;2.30;;
34695;SDS011;20918;51.138;17.370;2023-05-10T13:10:22;4.10;;;2.30;;
34695;SDS011;20918;51.138;17.370;2023-05-10T13:17:40;4.80;;;2.20;;
34695;SDS011;20918;51.138;17.370;2023-05-10T13:21:26;5.40;;;1.80;;
34695;SDS011;20918;51.138;17.370;2023-05-10T13:25:29;3.60;;;2.20;;
34695;SDS011;20918;51.138;17.370;2023-05-10T13:36:34;2.80;;;2.40;;
34695;SDS011;20918;51.138;17.370;2023-05-10T13:40:07;2.90;;;2.60;;
34695;SDS011;20918;51.138;17.370;2023-05-10T13:51:52;7.30;;;2.90;;
34695;SDS011;20918;51.138;17.370;2023-05-10T13:55:46;5.00;;;2.50;;
34695;SDS011;20918;51.138;17.370;2023-05-10T13:59:28;2.60;;;1.90;;
34695;SDS011;20918;51.138;17.370;2023-05-10T14:02:52;4.10;;;2.20;;
34695;SDS011;20918;51.138;17.370;2023-05-10T14:10:27;3.10;;;2.40;;
34695;SDS011;20918;51.138;17.370;2023-05-10T14:13:29;2.80;;;2.50;;
34695;SDS011;20918;51.138;17.370;2023-05-10T14:16:32;3.90;;;3.00;;
34695;SDS011;20918;51.138;17.370;2023-05-10T14:20:11;2.70;;;2.30;;
34695;SDS011;20918;51.138;17.370;2023-05-10T14:23:43;4.40;;;2.90;;
34695;SDS011;20918;51.138;17.370;2023-05-10T14:26:56;2.70;;;2.40;;
34695;SDS011;20918;51.138;17.370;2023-05-10T14:30:13;2.70;;;2.30;;
34695;SDS011;20918;51.138;17.370;2023-05-10T14:33:14;4.00;;;2.40;;
34695;SDS011;20918;51.138;17.370;2023-05-10T14:36:27;7.10;;;2.50;;
34695;SDS011;20918;51.138;17.370;2023-05-10T14:39:50;7.00;;;2.70;;
34695;SDS011;20918;51.138;17.370;2023-05-10T14:43:23;5.40;;;2.90;;
34695;SDS011;20918;51.138;17.370;2023-05-10T14:46:29;4.60;;;2.30;;
34695;SDS011;20918;51.138;17.370;2023-05-10T14:54:01;7.50;;;3.20;;
34695;SDS011;20918;51.138;17.370;2023-05-10T14:57:25;3.50;;;2.40;;
34695;SDS011;20918;51.138;17.370;2023-05-10T15:00:32;5.40;;;2.50;;
34695;SDS011;20918;51.138;17.370;2023-05-10T15:03:39;3.40;;;2.60;;
34695;SDS011;20918;51.138;17.370;2023-05-10T15:06:46;3.40;;;2.90;;
34695;SDS011;20918;51.138;17.370;2023-05-10T15:18:09;3.20;;;2.30;;
34695;SDS011;20918;51.138;17.370;2023-05-10T15:25:00;4.80;;;3.00;;
34695;SDS011;20918;51.138;17.370;2023-05-10T15:28:06;4.40;;;2.50;;
34695;SDS011;20918;51.138;17.370;2023-05-10T15:31:07;3.90;;;3.50;;
34695;SDS011;20918;51.138;17.370;2023-05-10T15:34:55;6.80;;;3.70;;
34695;SDS011;20918;51.138;17.370;2023-05-10T15:37:55;5.20;;;4.10;;
34695;SDS011;20918;51.138;17.370;2023-05-10T15:41:17;4.60;;;2.70;;
34695;SDS011;20918;51.138;17.370;2023-05-10T15:47:58;3.10;;;2.60;;
34695;SDS011;20918;51.138;17.370;2023-05-10T15:51:47;6.40;;;2.60;;
34695;SDS011;20918;51.138;17.370;2023-05-10T15:54:54;6.70;;;2.80;;
34695;SDS011;20918;51.138;17.370;2023-05-10T15:58:28;8.30;;;3.30;;
34695;SDS011;20918;51.138;17.370;2023-05-10T16:09:22;14.10;;;8.00;;
34695;SDS011;20918;51.138;17.370;2023-05-10T16:12:37;12.40;;;8.50;;
34695;SDS011;20918;51.138;17.370;2023-05-10T16:15:38;10.00;;;6.40;;
34695;SDS011;20918;51.138;17.370;2023-05-10T16:22:30;5.10;;;3.40;;
34695;SDS011;20918;51.138;17.370;2023-05-10T16:25:45;3.90;;;3.30;;
34695;SDS011;20918;51.138;17.370;2023-05-10T16:28:47;3.70;;;2.80;;
34695;SDS011;20918;51.138;17.370;2023-05-10T16:31:58;7.30;;;4.10;;
34695;SDS011;20918;51.138;17.370;2023-05-10T16:35:07;3.60;;;2.50;;
34695;SDS011;20918;51.138;17.370;2023-05-10T16:38:29;3.10;;;2.80;;
34695;SDS011;20918;51.138;17.370;2023-05-10T16:42:13;3.90;;;2.60;;
34695;SDS011;20918;51.138;17.370;2023-05-10T16:45:13;6.20;;;2.50;;
34695;SDS011;20918;51.138;17.370;2023-05-10T16:48:54;5.20;;;3.50;;
34695;SDS011;20918;51.138;17.370;2023-05-10T16:52:10;5.10;;;2.60;;
34695;SDS011;20918;51.138;17.370;2023-05-10T16:55:27;10.20;;;7.80;;
34695;SDS011;20918;51.138;17.370;2023-05-10T16:58:34;14.30;;;10.30;;
34695;SDS011;20918;51.138;17.370;2023-05-10T17:02:00;6.60;;;3.40;;
34695;SDS011;20918;51.138;17.370;2023-05-10T17:05:19;7.50;;;5.70;;
34695;SDS011;20918;51.138;17.370;2023-05-10T17:12:33;6.10;;;2.70;;
34695;SDS011;20918;51.138;17.370;2023-05-10T17:19:07;3.20;;;2.60;;
34695;SDS011;20918;51.138;17.370;2023-05-10T17:22:41;3.30;;;2.30;;
34695;SDS011;20918;51.138;17.370;2023-05-10T17:26:29;4.40;;;2.60;;
34695;SDS011;20918;51.138;17.370;2023-05-10T17:30:11;6.90;;;2.90;;
34695;SDS011;20918;51.138;17.370;2023-05-10T17:33:48;4.00;;;3.00;;
34695;SDS011;20918;51.138;17.370;2023-05-10T17:40:47;6.60;;;3.70;;
34695;SDS011;20918;51.138;17.370;2023-05-10T17:44:11;8.60;;;4.00;;
34695;SDS011;20918;51.138;17.370;2023-05-10T17:47:30;6.90;;;3.40;;
34695;SDS011;20918;51.138;17.370;2023-05-10T17:50:47;4.50;;;3.00;;
34695;SDS011;20918;51.138;17.370;2023-05-10T17:54:03;3.90;;;3.20;;
34695;SDS011;20918;51.138;17.370;2023-05-10T18:08:02;3.90;;;3.40;;
34695;SDS011;20918;51.138;17.370;2023-05-10T18:11:03;6.50;;;3.10;;
34695;SDS011;20918;51.138;17.370;2023-05-10T18:14:31;4.80;;;2.80;;
34695;SDS011;20918;51.138;17.370;2023-05-10T18:17:35;5.90;;;2.60;;
34695;SDS011;20918;51.138;17.370;2023-05-10T18:24:40;6.50;;;3.50;;
34695;SDS011;20918;51.138;17.370;2023-05-10T18:27:48;9.80;;;3.70;;
34695;SDS011;20918;51.138;17.370;2023-05-10T18:30:53;4.90;;;3.40;;
34695;SDS011;20918;51.138;17.370;2023-05-10T18:34:05;4.90;;;3.90;;
34695;SDS011;20918;51.138;17.370;2023-05-10T18:37:13;5.10;;;3.70;;
34695;SDS011;20918;51.138;17.370;2023-05-10T18:40:15;8.30;;;4.30;;
34695;SDS011;20918;51.138;17.370;2023-05-10T18:43:17;5.40;;;3.70;;
34695;SDS011;20918;51.138;17.370;2023-05-10T18:46:18;5.50;;;4.20;;
34695;SDS011;20918;51.138;17.370;2023-05-10T18:49:24;9.80;;;4.00;;
34695;SDS011;20918;51.138;17.370;2023-05-10T18:52:26;8.00;;;4.40;;
34695;SDS011;20918;51.138;17.370;2023-05-10T18:58:44;8.50;;;5.00;;
34695;SDS011;20918;51.138;17.370;2023-05-10T19:01:48;7.30;;;4.90;;
34695;SDS011;20918;51.138;17.370;2023-05-10T19:05:02;7.80;;;5.60;;
34695;SDS011;20918;51.138;17.370;2023-05-10T19:08:03;12.20;;;5.50;;
34695;SDS011;20918;51.138;17.370;2023-05-10T19:11:07;9.50;;;5.70;;
34695;SDS011;20918;51.138;17.370;2023-05-10T19:14:08;8.50;;;5.60;;
34695;SDS011;20918;51.138;17.370;2023-05-10T19:17:09;10.40;;;6.70;;
34695;SDS011;20918;51.138;17.370;2023-05-10T19:20:10;11.00;;;5.70;;
34695;SDS011;20918;51.138;17.370;2023-05-10T19:23:16;8.10;;;6.20;;
34695;SDS011;20918;51.138;17.370;2023-05-10T19:26:18;9.90;;;6.30;;
34695;SDS011;20918;51.138;17.370;2023-05-10T19:29:19;9.90;;;6.40;;
34695;SDS011;20918;51.138;17.370;2023-05-10T19:32:28;8.30;;;5.00;;
34695;SDS011;20918;51.138;17.370;2023-05-10T19:35:31;12.10;;;5.30;;
34695;SDS011;20918;51.138;17.370;2023-05-10T19:38:35;10.10;;;5.50;;
34695;SDS011;20918;51.138;17.370;2023-05-10T19:41:36;10.80;;;6.30;;
34695;SDS011;20918;51.138;17.370;2023-05-10T19:44:37;9.70;;;5.60;;
34695;SDS011;20918;51.138;17.370;2023-05-10T19:47:38;9.10;;;5.30;;
34695;SDS011;20918;51.138;17.370;2023-05-10T19:50:41;14.10;;;6.20;;
34695;SDS011;20918;51.138;17.370;2023-05-10T19:53:42;8.80;;;5.60;;
34695;SDS011;20918;51.138;17.370;2023-05-10T19:56:46;8.70;;;6.60;;
34695;SDS011;20918;51.138;17.370;2023-05-10T19:59:47;14.70;;;6.10;;
34695;SDS011;20918;51.138;17.370;2023-05-10T20:02:48;9.10;;;6.50;;
34695;SDS011;20918;51.138;17.370;2023-05-10T20:05:59;11.50;;;6.80;;
34695;SDS011;20918;51.138;17.370;2023-05-10T20:09:07;11.10;;;6.30;;
34695;SDS011;20918;51.138;17.370;2023-05-10T20:12:30;13.50;;;6.30;;
34695;SDS011;20918;51.138;17.370;2023-05-10T20:15:34;12.70;;;6.50;;
34695;SDS011;20918;51.138;17.370;2023-05-10T20:18:43;11.90;;;6.30;;
34695;SDS011;20918;51.138;17.370;2023-05-10T20:21:46;12.10;;;6.50;;
34695;SDS011;20918;51.138;17.370;2023-05-10T20:24:50;9.40;;;6.00;;
34695;SDS011;20918;51.138;17.370;2023-05-10T20:27:54;9.70;;;6.10;;
34695;SDS011;20918;51.138;17.370;2023-05-10T20:31:05;10.60;;;6.40;;
34695;SDS011;20918;51.138;17.370;2023-05-10T20:34:15;9.30;;;6.30;;
34695;SDS011;20918;51.138;17.370;2023-05-10T20:37:16;8.60;;;6.20;;
34695;SDS011;20918;51.138;17.370;2023-05-10T20:40:17;9.70;;;5.60;;
34695;SDS011;20918;51.138;17.370;2023-05-10T20:43:18;6.90;;;5.10;;
34695;SDS011;20918;51.138;17.370;2023-05-10T20:46:23;10.10;;;5.90;;
34695;SDS011;20918;51.138;17.370;2023-05-10T20:49:29;8.20;;;5.30;;
34695;SDS011;20918;51.138;17.370;2023-05-10T20:52:42;11.30;;;6.30;;
34695;SDS011;20918;51.138;17.370;2023-05-10T20:56:01;7.90;;;5.70;;
34695;SDS011;20918;51.138;17.370;2023-05-10T20:59:02;9.30;;;5.70;;
34695;SDS011;20918;51.138;17.370;2023-05-10T21:02:03;14.60;;;5.80;;
34695;SDS011;20918;51.138;17.370;2023-05-10T21:05:08;8.30;;;5.70;;
34695;SDS011;20918;51.138;17.370;2023-05-10T21:08:10;8.10;;;5.40;;
34695;SDS011;20918;51.138;17.370;2023-05-10T21:11:14;8.20;;;6.10;;
34695;SDS011;20918;51.138;17.370;2023-05-10T21:14:15;9.60;;;6.10;;
34695;SDS011;20918;51.138;17.370;2023-05-10T21:17:16;11.60;;;5.90;;
34695;SDS011;20918;51.138;17.370;2023-05-10T21:20:23;8.90;;;5.60;;
34695;SDS011;20918;51.138;17.370;2023-05-10T21:23:24;8.00;;;5.70;;
34695;SDS011;20918;51.138;17.370;2023-05-10T21:26:25;7.20;;;5.30;;
34695;SDS011;20918;51.138;17.370;2023-05-10T21:29:29;14.60;;;6.00;;
34695;SDS011;20918;51.138;17.370;2023-05-10T21:35:46;8.00;;;5.80;;
34695;SDS011;20918;51.138;17.370;2023-05-10T21:42:12;8.50;;;5.00;;
34695;SDS011;20918;51.138;17.370;2023-05-10T21:45:18;10.20;;;6.40;;
34695;SDS011;20918;51.138;17.370;2023-05-10T21:48:22;11.00;;;5.90;;
34695;SDS011;20918;51.138;17.370;2023-05-10T21:51:33;9.30;;;6.00;;
34695;SDS011;20918;51.138;17.370;2023-05-10T21:54:40;11.00;;;6.00;;
34695;SDS011;20918;51.138;17.370;2023-05-10T21:57:41;8.00;;;5.90;;
34695;SDS011;20918;51.138;17.370;2023-05-10T22:00:44;7.40;;;5.60;;
34695;SDS011;20918;51.138;17.370;2023-05-10T22:03:45;8.30;;;5.10;;
34695;SDS011;20918;51.138;17.370;2023-05-10T22:06:46;7.20;;;5.20;;
34695;SDS011;20918;51.138;17.370;2023-05-10T22:09:48;8.30;;;5.60;;
34695;SDS011;20918;51.138;17.370;2023-05-10T22:15:54;9.10;;;5.20;;
34695;SDS011;20918;51.138;17.370;2023-05-10T22:21:56;9.80;;;4.80;;
34695;SDS011;20918;51.138;17.370;2023-05-10T22:25:09;9.80;;;4.70;;
34695;SDS011;20918;51.138;17.370;2023-05-10T22:28:10;7.80;;;4.90;;
34695;SDS011;20918;51.138;17.370;2023-05-10T22:31:11;7.00;;;4.30;;
34695;SDS011;20918;51.138;17.370;2023-05-10T22:34:12;6.20;;;4.10;;
34695;SDS011;20918;51.138;17.370;2023-05-10T22:37:14;6.00;;;4.30;;
34695;SDS011;20918;51.138;17.370;2023-05-10T22:40:17;5.90;;;4.30;;
34695;SDS011;20918;51.138;17.370;2023-05-10T22:43:20;5.70;;;4.20;;
34695;SDS011;20918;51.138;17.370;2023-05-10T22:49:22;7.50;;;4.60;;
34695;SDS011;20918;51.138;17.370;2023-05-10T22:52:28;10.30;;;4.40;;
34695;SDS011;20918;51.138;17.370;2023-05-10T22:55:32;10.00;;;5.00;;
34695;SDS011;20918;51.138;17.370;2023-05-10T22:58:36;5.50;;;4.10;;
34695;SDS011;20918;51.138;17.370;2023-05-10T23:01:40;6.10;;;4.30;;
34695;SDS011;20918;51.138;17.370;2023-05-10T23:04:41;5.80;;;4.50;;
34695;SDS011;20918;51.138;17.370;2023-05-10T23:07:42;8.20;;;4.90;;
34695;SDS011;20918;51.138;17.370;2023-05-10T23:10:43;9.80;;;4.90;;
34695;SDS011;20918;51.138;17.370;2023-05-10T23:16:45;12.10;;;4.70;;
34695;SDS011;20918;51.138;17.370;2023-05-10T23:19:46;9.10;;;5.30;;
34695;SDS011;20918;51.138;17.370;2023-05-10T23:22:47;8.20;;;5.00;;
34695;SDS011;20918;51.138;17.370;2023-05-10T23:25:48;8.80;;;4.60;;
34695;SDS011;20918;51.138;17.370;2023-05-10T23:28:51;10.50;;;5.20;;
34695;SDS011;20918;51.138;17.370;2023-05-10T23:32:04;9.00;;;5.80;;
34695;SDS011;20918;51.138;17.370;2023-05-10T23:35:05;10.20;;;5.80;;
34695;SDS011;20918;51.138;17.370;2023-05-10T23:38:06;14.30;;;5.30;;
34695;SDS011;20918;51.138;17.370;2023-05-10T23:44:07;9.70;;;5.90;;
34695;SDS011;20918;51.138;17.370;2023-05-10T23:50:09;8.80;;;6.20;;
34695;SDS011;20918;51.138;17.370;2023-05-10T23:53:10;11.80;;;6.20;;
34695;SDS011;20918;51.138;17.370;2023-05-10T23:59:13;9.60;;;5.30;;
